createdAt,value
2023-04-25T00:00:30.925Z,95279.44
2023-04-25T00:03:01.348Z,95286.50
2023-04-25T00:05:31.042Z,95288.59
2023-04-25T00:08:00.402Z,95282.00
2023-04-25T00:10:29.702Z,95282.94
2023-04-25T00:12:59.116Z,95278.53
2023-04-25T00:15:27.902Z,95278.41
2023-04-25T00:17:56.732Z,95277.47
2023-04-25T00:20:26.434Z,95269.22
2023-04-25T00:22:55.168Z,95271.38
2023-04-25T00:25:24.002Z,95274.22
2023-04-25T00:27:52.783Z,95272.22
2023-04-25T00:30:21.672Z,95264.75
2023-04-25T00:32:52.233Z,95262.53
2023-04-25T00:35:21.429Z,95257.25
2023-04-25T00:37:50.628Z,95252.34
2023-04-25T00:40:19.734Z,95245.91
2023-04-25T00:42:49.208Z,95242.22
2023-04-25T00:45:19.530Z,95247.28
2023-04-25T00:47:51.831Z,95246.53
2023-04-25T00:50:20.785Z,95245.03
2023-04-25T00:52:49.781Z,95237.78
2023-04-25T00:55:18.666Z,95232.81
2023-04-25T00:57:48.449Z,95234.38
2023-04-25T01:00:18.798Z,95229.78
2023-04-25T01:02:48.761Z,95223.03
2023-04-25T01:05:17.865Z,95225.38
2023-04-25T01:07:47.460Z,95218.53
2023-04-25T01:10:16.975Z,95215.16
2023-04-25T01:12:45.888Z,95216.03
2023-04-25T01:15:15.398Z,95212.03
2023-04-25T01:17:45.686Z,95215.72
2023-04-25T01:20:16.018Z,95207.66
2023-04-25T01:22:45.828Z,95204.22
2023-04-25T01:25:14.998Z,95205.25
2023-04-25T01:27:44.245Z,95204.31
2023-04-25T01:30:13.441Z,95204.84
2023-04-25T01:32:44.859Z,95196.66
2023-04-25T01:35:14.314Z,95194.56
2023-04-25T01:37:44.854Z,95193.19
2023-04-25T01:40:15.228Z,95181.28
2023-04-25T01:42:45.604Z,95188.63
2023-04-25T01:45:14.980Z,95188.41
2023-04-25T01:47:45.344Z,95185.75
2023-04-25T01:50:14.751Z,95185.13
2023-04-25T01:52:43.797Z,95179.50
2023-04-25T01:55:13.584Z,95183.16
2023-04-25T01:57:51.829Z,95171.84
2023-04-25T02:00:26.176Z,95174.28
2023-04-25T02:02:55.376Z,95177.59
2023-04-25T02:05:39.756Z,95183.63
2023-04-25T02:08:11.333Z,95173.84
2023-04-25T02:10:40.392Z,95176.25
2023-04-25T02:13:32.258Z,95164.72
2023-04-25T02:16:24.209Z,95164.16
2023-04-25T02:18:55.614Z,95159.69
2023-04-25T02:21:24.403Z,95169.56
2023-04-25T02:23:53.750Z,95155.69
2023-04-25T02:26:22.736Z,95158.59
2023-04-25T02:28:52.138Z,95150.72
2023-04-25T02:31:21.894Z,95146.88
2023-04-25T02:33:51.124Z,95143.97
2023-04-25T02:36:20.088Z,95140.75
2023-04-25T02:38:51.769Z,95140.72
2023-04-25T02:41:23.497Z,95135.84
2023-04-25T02:43:52.631Z,95145.38
2023-04-25T02:46:32.221Z,95136.09
2023-04-25T02:49:08.783Z,95136.50
2023-04-25T02:51:37.927Z,95131.75
2023-04-25T02:54:08.060Z,95136.03
2023-04-25T02:56:41.788Z,95128.41
2023-04-25T02:59:16.322Z,95122.75
2023-04-25T03:01:47.047Z,95124.47
2023-04-25T03:04:16.586Z,95124.22
2023-04-25T03:06:45.811Z,95113.19
2023-04-25T03:09:14.893Z,95110.53
2023-04-25T03:11:43.927Z,95112.16
2023-04-25T03:14:13.476Z,95110.69
2023-04-25T03:16:42.459Z,95109.25
2023-04-25T03:19:12.294Z,95107.66
2023-04-25T03:21:41.201Z,95108.50
2023-04-25T03:24:12.521Z,95099.38
2023-04-25T03:26:41.384Z,95102.28
2023-04-25T03:29:10.954Z,95103.56
2023-04-25T03:31:41.547Z,95094.25
2023-04-25T03:34:11.597Z,95098.13
2023-04-25T03:36:41.704Z,95092.13
2023-04-25T03:39:11.961Z,95106.38
2023-04-25T03:41:43.290Z,95104.22
2023-04-25T03:44:17.096Z,95105.69
2023-04-25T03:46:46.789Z,95111.53
2023-04-25T03:49:17.877Z,95104.22
2023-04-25T03:52:15.712Z,95102.88
2023-04-25T03:54:48.183Z,95102.78
2023-04-25T03:57:21.134Z,95106.94
2023-04-25T03:59:50.074Z,95096.53
2023-04-25T04:02:20.401Z,95099.19
2023-04-25T04:04:50.470Z,95098.28
2023-04-25T04:07:19.724Z,95091.53
2023-04-25T04:09:52.735Z,95086.81
2023-04-25T04:12:27.629Z,95077.53
2023-04-25T04:14:56.507Z,95086.84
2023-04-25T04:17:27.036Z,95078.34
2023-04-25T04:19:56.610Z,95074.06
2023-04-25T04:22:26.492Z,95067.22
2023-04-25T04:24:59.279Z,95070.78
2023-04-25T04:27:53.341Z,95071.09
2023-04-25T04:30:32.573Z,95068.06
2023-04-25T04:33:07.167Z,95069.47
2023-04-25T04:35:36.926Z,95060.97
2023-04-25T04:38:06.562Z,95059.06
2023-04-25T04:40:36.949Z,95063.19
2023-04-25T04:43:27.175Z,95059.59
2023-04-25T04:46:05.746Z,95057.56
2023-04-25T04:48:44.277Z,95043.31
2023-04-25T04:51:32.739Z,95037.00
2023-04-25T04:54:31.508Z,95037.34
2023-04-25T04:57:18.278Z,95032.41
2023-04-25T05:00:01.096Z,95036.31
2023-04-25T05:02:51.605Z,95035.38
2023-04-25T05:05:32.262Z,95027.53
2023-04-25T05:08:21.610Z,95022.78
2023-04-25T05:11:11.720Z,95018.66
2023-04-25T05:14:00.929Z,95020.13
2023-04-25T05:16:48.500Z,95015.84
2023-04-25T05:19:41.517Z,95006.78
2023-04-25T05:22:34.523Z,95007.56
2023-04-25T05:25:16.591Z,95001.94
2023-04-25T05:28:07.418Z,95004.00
2023-04-25T05:30:53.138Z,94998.34
2023-04-25T05:33:28.845Z,95000.16
2023-04-25T05:35:58.020Z,94995.47
2023-04-25T05:38:28.717Z,95002.81
2023-04-25T05:41:33.137Z,95003.38
2023-04-25T05:44:14.889Z,95004.16
2023-04-25T05:46:52.108Z,95002.91
2023-04-25T05:49:27.664Z,94990.34
2023-04-25T05:52:19.329Z,94987.19
2023-04-25T05:54:59.186Z,94984.25
2023-04-25T05:57:29.707Z,94987.84
2023-04-25T05:59:59.048Z,94979.22
2023-04-25T06:02:44.368Z,94978.94
2023-04-25T06:05:16.914Z,94976.03
2023-04-25T06:07:48.925Z,94981.19
2023-04-25T06:10:18.331Z,94977.97
2023-04-25T06:12:48.780Z,94978.00
2023-04-25T06:17:52.198Z,94979.06
2023-04-25T06:20:24.590Z,94982.13
2023-04-25T06:22:54.673Z,94978.56
2023-04-25T06:25:30.533Z,94968.34
2023-04-25T06:27:59.348Z,94973.41
2023-04-25T06:30:29.722Z,94972.81
2023-04-25T06:33:05.721Z,94969.56
2023-04-25T06:35:35.638Z,94978.59
2023-04-25T06:38:05.306Z,94972.13
2023-04-25T06:40:34.642Z,94964.41
2023-04-25T06:43:03.998Z,94973.59
2023-04-25T06:45:56.569Z,94972.13
2023-04-25T06:48:29.809Z,94976.50
2023-04-25T06:51:00.865Z,94971.03
2023-04-25T06:53:30.990Z,94974.59
2023-04-25T06:56:05.610Z,94961.13
2023-04-25T06:58:48.027Z,94959.81
2023-04-25T07:01:30.518Z,94971.56
2023-04-25T07:04:01.400Z,94958.06
2023-04-25T07:06:33.169Z,94957.66
2023-04-25T07:09:02.232Z,94959.91
2023-04-25T07:11:31.367Z,94953.44
2023-04-25T07:14:01.251Z,94950.53
2023-04-25T07:16:30.989Z,94948.38
2023-04-25T07:19:04.111Z,94949.56
2023-04-25T07:21:33.367Z,94944.69
2023-04-25T07:24:04.765Z,94948.13
2023-04-25T07:26:37.313Z,94937.63
2023-04-25T07:29:19.293Z,94944.00
2023-04-25T07:31:48.206Z,94937.19
2023-04-25T07:34:17.394Z,94938.88
2023-04-25T07:36:47.872Z,94936.13
2023-04-25T07:39:16.779Z,94932.19
2023-04-25T07:41:46.490Z,94930.59
2023-04-25T07:44:22.584Z,94924.22
2023-04-25T07:46:51.937Z,94935.38
2023-04-25T07:49:21.769Z,94937.22
2023-04-25T07:51:51.756Z,94934.03
2023-04-25T07:54:23.391Z,94931.75
2023-04-25T07:57:03.924Z,94927.31
2023-04-25T07:59:34.472Z,94926.94
2023-04-25T08:02:06.347Z,94918.94
2023-04-25T08:04:37.251Z,94913.75
2023-04-25T08:07:09.922Z,94924.84
2023-04-25T08:09:50.589Z,94923.00
2023-04-25T08:12:26.896Z,94923.19
2023-04-25T08:14:56.245Z,94918.47
2023-04-25T08:17:27.818Z,94919.16
2023-04-25T08:19:57.489Z,94919.72
2023-04-25T08:22:36.178Z,94930.28
2023-04-25T08:25:25.758Z,94927.72
2023-04-25T08:27:54.908Z,94916.69
2023-04-25T08:30:25.048Z,94923.47
2023-04-25T08:32:54.116Z,94921.94
2023-04-25T08:35:48.373Z,94921.94
2023-04-25T08:38:19.151Z,94926.31
2023-04-25T08:40:55.508Z,94928.16
2023-04-25T08:43:27.185Z,94923.28
2023-04-25T08:46:02.938Z,94932.00
2023-04-25T08:48:48.997Z,94935.81
2023-04-25T08:51:28.034Z,94943.22
2023-04-25T08:54:28.026Z,94949.63
2023-04-25T08:57:05.777Z,94944.59
2023-04-25T08:59:37.910Z,94945.16
2023-04-25T09:02:10.970Z,94951.75
2023-04-25T09:04:41.270Z,94951.66
2023-04-25T09:07:10.072Z,94959.63
2023-04-25T09:09:39.332Z,94959.34
2023-04-25T09:12:08.421Z,94967.41
2023-04-25T09:14:38.054Z,94962.09
2023-04-25T09:17:26.408Z,94974.59
2023-04-25T09:20:06.789Z,94971.00
2023-04-25T09:22:37.832Z,94961.38
2023-04-25T09:25:12.102Z,94959.25
2023-04-25T09:27:53.995Z,94964.25
2023-04-25T09:30:36.738Z,94966.97
2023-04-25T09:33:14.134Z,94964.66
2023-04-25T09:35:54.412Z,94961.19
2023-04-25T09:38:32.918Z,94961.06
2023-04-25T09:41:13.834Z,94965.88
2023-04-25T09:43:48.539Z,94954.31
2023-04-25T09:46:20.839Z,94965.78
2023-04-25T09:48:55.586Z,94972.41
2023-04-25T09:51:34.732Z,94976.25
2023-04-25T09:54:06.330Z,94974.72
2023-04-25T09:56:50.286Z,94971.44
2023-04-25T09:59:23.314Z,94981.16
2023-04-25T10:01:56.416Z,94983.78
2023-04-25T10:04:37.276Z,94996.19
2023-04-25T10:07:10.517Z,95002.97
2023-04-25T10:09:41.428Z,94997.16
2023-04-25T10:12:10.743Z,94989.19
2023-04-25T10:14:40.530Z,94999.78
2023-04-25T10:17:12.053Z,94983.66
2023-04-25T10:19:41.588Z,95006.50
2023-04-25T10:22:19.673Z,95003.81
2023-04-25T10:24:49.020Z,95004.13
2023-04-25T10:27:18.415Z,95005.97
2023-04-25T10:30:01.636Z,95008.13
2023-04-25T10:32:36.470Z,95015.88
2023-04-25T10:35:32.029Z,95029.41
2023-04-25T10:38:06.504Z,95026.50
2023-04-25T10:40:35.616Z,95026.69
2023-04-25T10:43:41.640Z,95039.09
2023-04-25T10:46:24.211Z,95045.72
2023-04-25T10:48:58.044Z,95032.59
2023-04-25T10:51:47.388Z,95067.66
2023-04-25T10:54:27.293Z,95059.50
2023-04-25T10:56:56.252Z,95063.59
2023-04-25T10:59:27.172Z,95068.78
2023-04-25T11:01:58.177Z,95078.63
2023-04-25T11:04:31.617Z,95080.31
2023-04-25T11:07:09.913Z,95078.97
2023-04-25T11:09:42.054Z,95089.84
2023-04-25T11:12:13.262Z,95082.97
2023-04-25T11:14:42.331Z,95090.34
2023-04-25T11:17:12.917Z,95090.38
2023-04-25T11:19:42.930Z,95075.84
2023-04-25T11:22:12.655Z,95099.31
2023-04-25T11:24:41.854Z,95101.28
2023-04-25T11:27:11.012Z,95109.72
2023-04-25T11:29:39.840Z,95118.59
2023-04-25T11:32:09.475Z,95113.97
2023-04-25T11:34:38.450Z,95121.28
2023-04-25T11:37:08.118Z,95113.16
2023-04-25T11:39:37.328Z,95121.59
2023-04-25T11:42:12.099Z,95120.41
2023-04-25T11:44:43.233Z,95123.44
2023-04-25T11:47:12.104Z,95121.88
2023-04-25T11:49:40.929Z,95138.00
2023-04-25T11:52:09.877Z,95123.00
2023-04-25T11:54:39.738Z,95136.78
2023-04-25T11:57:08.640Z,95139.44
2023-04-25T11:59:37.549Z,95142.09
2023-04-25T12:02:08.572Z,95145.50
2023-04-25T12:04:37.957Z,95139.72
2023-04-25T12:07:12.058Z,95140.81
2023-04-25T12:09:42.233Z,95141.97
2023-04-25T12:12:11.931Z,95136.19
2023-04-25T12:14:40.796Z,95136.47
2023-04-25T12:17:11.367Z,95147.94
2023-04-25T12:19:45.367Z,95141.69
2023-04-25T12:22:33.516Z,95149.72
2023-04-25T12:25:02.413Z,95160.41
2023-04-25T12:27:35.676Z,95164.97
2023-04-25T12:30:05.396Z,95159.19
2023-04-25T12:32:37.479Z,95173.34
2023-04-25T12:35:08.150Z,95172.88
2023-04-25T12:37:37.038Z,95182.88
2023-04-25T12:40:08.173Z,95200.06
2023-04-25T12:42:37.207Z,95210.34
2023-04-25T12:45:06.366Z,95222.59
2023-04-25T12:47:36.840Z,95233.69
2023-04-25T12:50:10.239Z,95235.66
2023-04-25T12:52:39.744Z,95245.25
2023-04-25T12:55:09.171Z,95257.16
2023-04-25T12:57:38.050Z,95252.16
2023-04-25T13:00:11.050Z,95259.72
2023-04-25T13:02:40.668Z,95251.16
2023-04-25T13:05:11.189Z,95272.03
2023-04-25T13:07:40.154Z,95273.41
2023-04-25T13:10:09.436Z,95266.63
2023-04-25T13:12:38.303Z,95267.88
2023-04-25T13:15:08.682Z,95271.31
2023-04-25T13:17:37.848Z,95301.06
2023-04-25T13:20:10.279Z,95277.66
2023-04-25T13:22:40.900Z,95304.25
2023-04-25T13:25:10.507Z,95294.25
2023-04-25T13:27:41.424Z,95291.50
2023-04-25T13:30:10.609Z,95304.13
2023-04-25T13:32:40.200Z,95312.25
2023-04-25T13:35:13.993Z,95311.16
2023-04-25T13:37:42.919Z,95313.75
2023-04-25T13:40:12.887Z,95316.25
2023-04-25T13:42:42.241Z,95335.19
2023-04-25T13:45:11.837Z,95348.13
2023-04-25T13:47:40.688Z,95356.38
2023-04-25T13:50:10.082Z,95356.91
2023-04-25T13:52:39.621Z,95368.25
2023-04-25T13:55:10.031Z,95360.81
2023-04-25T13:57:41.132Z,95370.91
2023-04-25T14:00:12.364Z,95382.06
2023-04-25T14:02:41.601Z,95380.06
2023-04-25T14:05:10.860Z,95386.66
2023-04-25T14:07:39.770Z,95381.03
2023-04-25T14:10:09.211Z,95389.50
2023-04-25T14:12:38.102Z,95385.66
2023-04-25T14:15:07.426Z,95400.34
2023-04-25T14:17:36.323Z,95407.78
2023-04-25T14:20:07.391Z,95400.59
2023-04-25T14:22:36.463Z,95407.69
2023-04-25T14:25:05.822Z,95412.34
2023-04-25T14:27:34.644Z,95417.13
2023-04-25T14:30:03.463Z,95421.31
2023-04-25T14:32:33.727Z,95432.09
2023-04-25T14:35:02.881Z,95428.88
2023-04-25T14:37:32.649Z,95451.94
2023-04-25T14:40:01.420Z,95446.03
2023-04-25T14:42:33.562Z,95444.78
2023-04-25T14:45:02.570Z,95458.81
2023-04-25T14:47:35.330Z,95449.56
2023-04-25T14:50:06.102Z,95452.50
2023-04-25T14:52:34.949Z,95467.56
2023-04-25T14:55:06.871Z,95455.88
2023-04-25T14:57:36.539Z,95464.38
2023-04-25T15:00:09.095Z,95472.53
2023-04-25T15:02:38.960Z,95453.16
2023-04-25T15:05:08.732Z,95445.31
2023-04-25T15:07:37.635Z,95463.47
2023-04-25T15:10:07.786Z,95471.19
2023-04-25T15:12:36.792Z,95471.38
2023-04-25T15:15:07.252Z,95475.34
2023-04-25T15:17:40.135Z,95477.19
2023-04-25T15:20:14.608Z,95481.56
2023-04-25T15:22:45.263Z,95491.28
2023-04-25T15:25:14.114Z,95490.81
2023-04-25T15:27:45.259Z,95497.22
2023-04-25T15:30:16.912Z,95496.13
2023-04-25T15:32:46.922Z,95516.16
2023-04-25T15:35:19.237Z,95513.06
2023-04-25T15:37:48.012Z,95523.63
2023-04-25T15:40:18.094Z,95526.59
2023-04-25T15:42:48.582Z,95529.59
2023-04-25T15:45:18.422Z,95532.25
2023-04-25T15:47:48.317Z,95538.00
2023-04-25T15:50:17.243Z,95533.00
2023-04-25T15:52:46.269Z,95523.97
2023-04-25T15:55:15.735Z,95541.38
2023-04-25T15:57:44.764Z,95549.78
2023-04-25T16:00:16.203Z,95555.88
2023-04-25T16:02:49.004Z,95559.66
2023-04-25T16:05:18.923Z,95559.66
2023-04-25T16:07:48.888Z,95564.31
2023-04-25T16:10:22.028Z,95559.44
2023-04-25T16:12:51.989Z,95561.06
2023-04-25T16:15:20.958Z,95565.28
2023-04-25T16:17:49.909Z,95580.91
2023-04-25T16:20:18.950Z,95570.91
2023-04-25T16:22:48.166Z,95574.03
2023-04-25T16:25:16.958Z,95576.84
2023-04-25T16:27:45.681Z,95580.50
2023-04-25T16:30:15.082Z,95587.38
2023-04-25T16:32:45.570Z,95601.44
2023-04-25T16:35:14.783Z,95600.03
2023-04-25T16:37:43.682Z,95605.31
2023-04-25T16:40:13.354Z,95609.34
2023-04-25T16:42:42.140Z,95620.47
2023-04-25T16:45:11.715Z,95625.13
2023-04-25T16:47:40.563Z,95623.25
2023-04-25T16:50:09.931Z,95626.22
2023-04-25T16:52:38.744Z,95633.25
2023-04-25T16:55:08.787Z,95644.22
2023-04-25T16:57:38.266Z,95649.81
2023-04-25T17:00:10.605Z,95649.38
2023-04-25T17:02:39.785Z,95649.59
2023-04-25T17:05:10.202Z,95639.56
2023-04-25T17:07:39.616Z,95659.91
2023-04-25T17:10:09.757Z,95660.53
2023-04-25T17:12:39.212Z,95648.97
2023-04-25T17:15:08.518Z,95664.91
2023-04-25T17:17:37.534Z,95656.81
2023-04-25T17:20:07.701Z,95672.59
2023-04-25T17:22:40.559Z,95671.66
2023-04-25T17:25:10.321Z,95671.06
2023-04-25T17:27:39.172Z,95682.91
2023-04-25T17:30:09.189Z,95678.06
2023-04-25T17:32:38.147Z,95692.16
2023-04-25T17:35:07.343Z,95697.31
2023-04-25T17:37:36.507Z,95691.81
2023-04-25T17:40:07.715Z,95692.47
2023-04-25T17:42:36.542Z,95695.56
2023-04-25T17:45:05.939Z,95692.47
2023-04-25T17:47:35.085Z,95686.22
2023-04-25T17:50:05.302Z,95698.56
2023-04-25T17:52:34.167Z,95695.09
2023-04-25T17:55:03.251Z,95691.50
2023-04-25T17:57:32.413Z,95690.88
2023-04-25T18:00:01.592Z,95692.59
2023-04-25T18:02:43.055Z,95689.47
2023-04-25T18:05:12.382Z,95694.78
2023-04-25T18:07:42.236Z,95694.63
2023-04-25T18:10:12.459Z,95699.44
2023-04-25T18:12:41.404Z,95702.25
2023-04-25T18:15:11.155Z,95714.41
2023-04-25T18:17:43.538Z,95696.59
2023-04-25T18:20:17.889Z,95711.13
2023-04-25T18:22:47.547Z,95717.03
2023-04-25T18:25:16.356Z,95690.03
2023-04-25T18:27:46.358Z,95724.34
2023-04-25T18:30:15.383Z,95732.16
2023-04-25T18:32:44.402Z,95738.06
2023-04-25T18:35:13.766Z,95738.34
2023-04-25T18:37:42.946Z,95748.97
2023-04-25T18:40:14.391Z,95748.50
2023-04-25T18:42:43.801Z,95740.88
2023-04-25T18:45:13.027Z,95756.28
2023-04-25T18:47:41.938Z,95752.38
2023-04-25T18:50:11.227Z,95757.97
2023-04-25T18:52:40.190Z,95758.09
2023-04-25T18:55:09.823Z,95764.53
2023-04-25T18:57:39.596Z,95750.16
2023-04-25T19:00:10.009Z,95759.22
2023-04-25T19:02:39.530Z,95761.06
2023-04-25T19:05:09.206Z,95759.81
2023-04-25T19:07:40.832Z,95749.34
2023-04-25T19:10:10.119Z,95770.38
2023-04-25T19:12:38.858Z,95760.22
2023-04-25T19:15:08.405Z,95760.97
2023-04-25T19:17:37.842Z,95766.72
2023-04-25T19:20:07.544Z,95778.28
2023-04-25T19:22:36.547Z,95783.88
2023-04-25T19:25:10.460Z,95798.69
2023-04-25T19:27:40.372Z,95793.41
2023-04-25T19:30:09.830Z,95800.09
2023-04-25T19:32:39.949Z,95788.81
2023-04-25T19:35:11.618Z,95795.69
2023-04-25T19:37:46.753Z,95798.81
2023-04-25T19:40:18.000Z,95803.22
2023-04-25T19:42:48.244Z,95798.09
2023-04-25T19:45:17.161Z,95802.44
2023-04-25T19:47:46.122Z,95805.22
2023-04-25T19:50:14.987Z,95809.72
2023-04-25T19:52:44.136Z,95806.91
2023-04-25T19:55:12.953Z,95795.16
2023-04-25T19:57:41.987Z,95813.81
2023-04-25T20:00:15.877Z,95799.41
2023-04-25T20:02:46.672Z,95817.84
2023-04-25T20:05:18.085Z,95817.69
2023-04-25T20:07:46.904Z,95797.19
2023-04-25T20:10:17.052Z,95813.88
2023-04-25T20:12:46.275Z,95816.53
2023-04-25T20:15:15.147Z,95833.69
2023-04-25T20:17:43.984Z,95826.63
2023-04-25T20:20:13.330Z,95840.47
2023-04-25T20:22:42.188Z,95819.09
2023-04-25T20:25:12.675Z,95837.47
2023-04-25T20:27:41.506Z,95845.50
2023-04-25T20:30:12.518Z,95830.63
2023-04-25T20:32:41.557Z,95848.16
2023-04-25T20:35:12.054Z,95844.25
2023-04-25T20:37:44.127Z,95851.72
2023-04-25T20:40:13.213Z,95857.88
2023-04-25T20:42:42.197Z,95860.06
2023-04-25T20:45:14.088Z,95855.94
2023-04-25T20:47:44.998Z,95851.84
2023-04-25T20:50:13.998Z,95866.06
2023-04-25T20:52:43.790Z,95873.28
2023-04-25T20:55:12.686Z,95879.09
2023-04-25T20:57:41.741Z,95872.31
2023-04-25T21:00:19.268Z,95884.47
2023-04-25T21:02:48.653Z,95889.59
2023-04-25T21:05:17.857Z,95886.34
2023-04-25T21:07:47.388Z,95876.38
2023-04-25T21:10:17.881Z,95885.84
2023-04-25T21:12:48.342Z,95871.47
2023-04-25T21:15:18.618Z,95884.69
2023-04-25T21:17:48.282Z,95894.59
2023-04-25T21:20:21.311Z,95884.38
2023-04-25T21:22:54.171Z,95893.59
2023-04-25T21:25:29.532Z,95891.16
2023-04-25T21:27:59.535Z,95897.03
2023-04-25T21:30:28.574Z,95896.72
2023-04-25T21:32:57.611Z,95900.34
2023-04-25T21:35:26.648Z,95898.81
2023-04-25T21:37:55.537Z,95903.13
2023-04-25T21:40:24.728Z,95903.69
2023-04-25T21:42:53.897Z,95901.34
2023-04-25T21:45:22.948Z,95905.88
2023-04-25T21:47:51.875Z,95912.13
2023-04-25T21:50:21.390Z,95908.41
2023-04-25T21:52:50.350Z,95910.88
2023-04-25T21:55:20.324Z,95903.50
2023-04-25T21:57:49.546Z,95921.75
2023-04-25T22:00:25.290Z,95924.41
2023-04-25T22:02:59.394Z,95916.66
2023-04-25T22:05:29.975Z,95929.59
2023-04-25T22:07:58.877Z,95935.97
2023-04-25T22:10:28.471Z,95931.66
2023-04-25T22:12:57.460Z,95934.00
2023-04-25T22:15:27.062Z,95925.47
2023-04-25T22:17:55.871Z,95934.19
2023-04-25T22:20:26.874Z,95936.56
2023-04-25T22:22:59.155Z,95933.00
2023-04-25T22:25:28.042Z,95930.34
2023-04-25T22:27:57.860Z,95929.88
2023-04-25T22:30:26.920Z,95914.00
2023-04-25T22:32:57.037Z,95930.06
2023-04-25T22:35:26.390Z,95932.72
2023-04-25T22:37:55.291Z,95939.09
2023-04-25T22:40:24.681Z,95944.41
2023-04-25T22:42:53.543Z,95938.91
2023-04-25T22:45:22.416Z,95939.97
2023-04-25T22:47:51.264Z,95950.25
2023-04-25T22:50:20.837Z,95952.72
2023-04-25T22:52:49.756Z,95946.16
2023-04-25T22:55:18.646Z,95951.47
2023-04-25T22:57:48.936Z,95960.69
2023-04-25T23:00:22.507Z,95959.41
2023-04-25T23:02:51.989Z,95963.03
2023-04-25T23:05:20.927Z,95964.00
2023-04-25T23:07:50.152Z,95963.72
2023-04-25T23:10:20.090Z,95962.13
2023-04-25T23:12:49.354Z,95970.56
2023-04-25T23:15:18.535Z,95975.06
2023-04-25T23:17:47.518Z,95974.00
2023-04-25T23:20:16.416Z,95978.69
2023-04-25T23:22:45.563Z,95982.16
2023-04-25T23:25:14.514Z,95991.06
2023-04-25T23:27:43.945Z,95991.56
2023-04-25T23:30:13.156Z,95993.63
2023-04-25T23:32:43.245Z,95983.91
2023-04-25T23:35:12.652Z,95995.97
2023-04-25T23:37:41.852Z,95984.41
2023-04-25T23:40:11.420Z,95986.47
2023-04-25T23:42:42.849Z,95998.81
2023-04-25T23:45:11.999Z,96009.41
2023-04-25T23:47:40.908Z,96009.31
2023-04-25T23:50:10.108Z,96004.78
2023-04-25T23:52:41.509Z,96008.25
2023-04-25T23:55:10.456Z,96007.34
2023-04-25T23:57:39.475Z,96004.69
